createdAt,value
2016-09-26T00:00:28.018Z,99.99
2016-09-26T00:01:28.355Z,99.99
2016-09-26T00:02:28.114Z,99.99
2016-09-26T00:03:28.395Z,99.99
2016-09-26T00:04:28.416Z,99.99
2016-09-26T00:05:28.446Z,99.99
2016-09-26T00:06:28.148Z,99.99
2016-09-26T00:07:28.168Z,99.99
2016-09-26T00:08:28.345Z,99.99
2016-09-26T00:09:28.215Z,99.99
2016-09-26T00:10:28.547Z,99.99
2016-09-26T00:11:28.257Z,99.99
2016-09-26T00:12:28.708Z,99.99
2016-09-26T00:13:28.309Z,99.99
2016-09-26T00:14:28.695Z,99.99
2016-09-26T00:15:28.347Z,99.99
2016-09-26T00:16:28.430Z,99.99
2016-09-26T00:17:28.385Z,99.99
2016-09-26T00:18:28.412Z,99.99
2016-09-26T00:19:28.441Z,99.99
2016-09-26T00:20:28.766Z,99.99
2016-09-26T00:21:28.475Z,99.99
2016-09-26T00:22:28.558Z,99.99
2016-09-26T00:23:28.845Z,99.99
2016-09-26T00:24:28.871Z,99.99
2016-09-26T00:25:28.883Z,99.99
2016-09-26T00:26:28.906Z,99.99
2016-09-26T00:27:28.709Z,99.99
2016-09-26T00:28:28.957Z,99.99
2016-09-26T00:29:28.675Z,99.82
2016-09-26T00:30:28.998Z,99.91
2016-09-26T00:31:28.704Z,99.99
2016-09-26T00:32:29.078Z,99.24
2016-09-26T00:33:29.067Z,99.34
2016-09-26T00:34:29.090Z,99.34
2016-09-26T00:35:29.099Z,99.63
2016-09-26T00:36:29.237Z,99.53
2016-09-26T00:37:28.851Z,99.53
2016-09-26T00:38:29.247Z,99.87
2016-09-26T00:39:29.187Z,99.29
2016-09-26T00:40:29.225Z,99.99
2016-09-26T00:41:28.926Z,99.77
2016-09-26T00:42:28.963Z,99.77
2016-09-26T00:43:28.979Z,99.99
2016-09-26T00:44:29.303Z,99.99
2016-09-26T00:45:29.346Z,99.99
2016-09-26T00:46:29.052Z,99.99
2016-09-26T00:47:29.428Z,99.99
2016-09-26T00:48:29.397Z,99.99
2016-09-26T00:49:29.427Z,99.99
2016-09-26T00:50:29.448Z,99.99
2016-09-26T00:51:29.156Z,99.99
2016-09-26T00:52:29.226Z,99.99
2016-09-26T00:53:29.510Z,99.99
2016-09-26T00:54:29.537Z,99.87
2016-09-26T00:55:29.551Z,99.87
2016-09-26T00:56:29.580Z,99.96
2016-09-26T00:57:29.656Z,99.96
2016-09-26T00:58:29.309Z,99.99
2016-09-26T00:59:29.337Z,99.87
2016-09-26T01:00:29.678Z,99.99
2016-09-26T01:01:29.388Z,99.68
2016-09-26T01:02:29.408Z,99.99
2016-09-26T01:03:29.737Z,99.99
2016-09-26T01:04:29.758Z,99.99
2016-09-26T01:05:29.469Z,99.99
2016-09-26T01:06:29.797Z,99.99
2016-09-26T01:07:29.828Z,99.99
2016-09-26T01:08:29.546Z,99.99
2016-09-26T01:09:29.879Z,99.99
2016-09-26T01:10:29.901Z,99.99
2016-09-26T01:11:29.923Z,99.99
2016-09-26T01:12:30.088Z,99.99
2016-09-26T01:13:29.968Z,99.99
2016-09-26T01:14:29.980Z,99.99
2016-09-26T01:15:29.698Z,99.99
2016-09-26T01:16:30.030Z,99.99
2016-09-26T01:17:30.052Z,99.99
2016-09-26T01:18:29.758Z,99.99
2016-09-26T01:19:29.781Z,99.99
2016-09-26T01:20:29.820Z,99.99
2016-09-26T01:21:30.133Z,99.99
2016-09-26T01:22:29.859Z,99.99
2016-09-26T01:23:30.190Z,99.99
2016-09-26T01:24:30.210Z,99.99
2016-09-26T01:25:29.931Z,99.99
2016-09-26T01:26:29.955Z,99.99
2016-09-26T01:27:30.320Z,99.99
2016-09-26T01:28:30.301Z,99.99
2016-09-26T01:29:30.018Z,99.99
2016-09-26T01:30:30.349Z,99.99
2016-09-26T01:31:30.380Z,99.99
2016-09-26T01:32:30.082Z,99.99
2016-09-26T01:33:30.421Z,99.99
2016-09-26T01:34:30.429Z,99.99
2016-09-26T01:35:30.182Z,99.99
2016-09-26T01:36:30.489Z,99.99
2016-09-26T01:37:30.599Z,99.99
2016-09-26T01:38:30.535Z,99.99
2016-09-26T01:39:30.237Z,99.99
2016-09-26T01:40:30.302Z,99.99
2016-09-26T01:41:30.595Z,99.99
2016-09-26T01:42:30.322Z,99.99
2016-09-26T01:43:30.633Z,99.99
2016-09-26T01:44:30.660Z,99.99
2016-09-26T01:45:30.361Z,99.99
2016-09-26T01:46:30.410Z,99.99
2016-09-26T01:47:30.732Z,99.99
2016-09-26T01:48:30.490Z,99.99
2016-09-26T01:49:30.469Z,99.99
2016-09-26T01:50:30.485Z,99.99
2016-09-26T01:51:30.514Z,99.99
2016-09-26T01:52:30.885Z,99.99
2016-09-26T01:53:30.861Z,99.99
2016-09-26T01:54:30.892Z,99.99
2016-09-26T01:55:30.598Z,99.99
2016-09-26T01:56:30.619Z,99.99
2016-09-26T01:57:31.012Z,99.99
2016-09-26T01:58:30.976Z,99.99
2016-09-26T01:59:31.069Z,99.99
2016-09-26T02:00:31.017Z,99.99
2016-09-26T02:01:31.139Z,99.99
2016-09-26T02:02:30.807Z,99.99
2016-09-26T02:03:31.082Z,99.99
2016-09-26T02:04:30.800Z,99.99
2016-09-26T02:05:30.822Z,99.99
2016-09-26T02:06:30.849Z,99.99
2016-09-26T02:07:31.232Z,99.99
2016-09-26T02:08:31.186Z,99.99
2016-09-26T02:09:31.220Z,99.99
2016-09-26T02:10:30.971Z,99.99
2016-09-26T02:11:30.962Z,99.99
2016-09-26T02:12:31.124Z,99.99
2016-09-26T02:13:31.311Z,99.99
2016-09-26T02:14:31.378Z,99.99
2016-09-26T02:15:31.358Z,99.99
2016-09-26T02:16:31.383Z,99.99
2016-09-26T02:17:31.092Z,99.99
2016-09-26T02:18:31.421Z,99.99
2016-09-26T02:19:31.431Z,99.99
2016-09-26T02:20:31.461Z,99.99
2016-09-26T02:21:31.491Z,99.99
2016-09-26T02:22:31.199Z,99.99
2016-09-26T02:23:31.532Z,99.99
2016-09-26T02:24:31.553Z,99.99
2016-09-26T02:25:31.582Z,99.99
2016-09-26T02:26:31.296Z,99.99
2016-09-26T02:27:31.367Z,99.99
2016-09-26T02:28:31.334Z,99.99
2016-09-26T02:29:31.361Z,99.99
2016-09-26T02:30:31.369Z,99.99
2016-09-26T02:31:31.413Z,99.99
2016-09-26T02:32:31.732Z,99.99
2016-09-26T02:33:31.764Z,99.99
2016-09-26T02:34:31.775Z,99.99
2016-09-26T02:35:31.810Z,99.99
2016-09-26T02:36:31.513Z,99.99
2016-09-26T02:37:31.886Z,99.99
2016-09-26T02:38:31.554Z,99.99
2016-09-26T02:39:31.882Z,99.99
2016-09-26T02:40:31.602Z,99.99
2016-09-26T02:41:31.934Z,99.99
2016-09-26T02:42:32.002Z,99.99
2016-09-26T02:43:31.673Z,99.99
2016-09-26T02:44:31.703Z,99.99
2016-09-26T02:45:31.704Z,99.99
2016-09-26T02:46:32.034Z,99.99
2016-09-26T02:47:31.749Z,99.99
2016-09-26T02:48:32.147Z,99.99
2016-09-26T02:49:31.797Z,99.99
2016-09-26T02:50:32.133Z,99.99
2016-09-26T02:51:32.147Z,99.99
2016-09-26T02:52:31.863Z,99.99
2016-09-26T02:53:32.193Z,99.99
2016-09-26T02:54:32.221Z,99.99
2016-09-26T02:55:32.247Z,99.99
2016-09-26T02:56:32.013Z,99.99
2016-09-26T02:57:32.295Z,99.99
2016-09-26T02:58:32.005Z,99.99
2016-09-26T02:59:32.335Z,99.99
2016-09-26T03:00:32.346Z,99.99
2016-09-26T03:01:32.062Z,99.99
2016-09-26T03:02:32.395Z,99.99
2016-09-26T03:03:32.115Z,99.99
2016-09-26T03:04:32.131Z,99.99
2016-09-26T03:05:32.457Z,99.99
2016-09-26T03:06:32.483Z,99.99
2016-09-26T03:07:32.514Z,99.99
2016-09-26T03:08:32.532Z,99.99
2016-09-26T03:09:32.384Z,99.99
2016-09-26T03:10:32.570Z,99.99
2016-09-26T03:11:32.354Z,99.99
2016-09-26T03:12:32.694Z,99.99
2016-09-26T03:13:32.684Z,99.99
2016-09-26T03:14:32.663Z,99.99
2016-09-26T03:15:32.685Z,99.99
2016-09-26T03:16:32.401Z,99.99
2016-09-26T03:17:32.721Z,99.99
2016-09-26T03:18:32.738Z,99.99
2016-09-26T03:19:32.464Z,99.99
2016-09-26T03:20:32.813Z,99.99
2016-09-26T03:21:32.816Z,99.99
2016-09-26T03:22:32.635Z,99.99
2016-09-26T03:23:32.954Z,99.99
2016-09-26T03:24:32.889Z,99.99
2016-09-26T03:25:32.595Z,99.99
2016-09-26T03:26:32.619Z,99.99
2016-09-26T03:27:32.636Z,99.99
2016-09-26T03:28:32.649Z,99.99
2016-09-26T03:29:32.980Z,99.99
2016-09-26T03:30:32.691Z,99.99
2016-09-26T03:31:32.716Z,99.99
2016-09-26T03:32:32.733Z,99.99
2016-09-26T03:33:32.784Z,99.99
2016-09-26T03:34:32.775Z,99.99
2016-09-26T03:35:33.174Z,99.99
2016-09-26T03:36:33.136Z,99.99
2016-09-26T03:37:33.253Z,99.99
2016-09-26T03:38:32.865Z,99.99
2016-09-26T03:39:32.891Z,99.99
2016-09-26T03:40:33.205Z,99.99
2016-09-26T03:41:32.936Z,99.99
2016-09-26T03:42:33.265Z,99.99
2016-09-26T03:43:32.977Z,99.99
2016-09-26T03:44:33.317Z,99.99
2016-09-26T03:45:33.013Z,99.99
2016-09-26T03:46:33.035Z,99.99
2016-09-26T03:47:33.049Z,99.99
2016-09-26T03:48:33.143Z,99.99
2016-09-26T03:49:33.106Z,99.99
2016-09-26T03:50:33.433Z,99.99
2016-09-26T03:51:33.464Z,99.99
2016-09-26T03:52:33.475Z,99.99
2016-09-26T03:53:33.182Z,99.99
2016-09-26T03:54:33.206Z,99.99
2016-09-26T03:55:33.535Z,99.99
2016-09-26T03:56:33.562Z,99.99
2016-09-26T03:57:33.314Z,99.99
2016-09-26T03:58:33.283Z,99.99
2016-09-26T03:59:33.624Z,99.99
2016-09-26T04:00:33.336Z,99.99
2016-09-26T04:01:33.656Z,99.99
2016-09-26T04:02:33.688Z,99.99
2016-09-26T04:03:33.387Z,99.99
2016-09-26T04:04:33.406Z,99.99
2016-09-26T04:05:33.745Z,99.99
2016-09-26T04:06:33.775Z,99.99
2016-09-26T04:07:33.524Z,99.99
2016-09-26T04:08:33.503Z,99.99
2016-09-26T04:09:33.834Z,99.99
2016-09-26T04:10:33.854Z,99.99
2016-09-26T04:11:33.568Z,99.99
2016-09-26T04:12:33.632Z,99.99
2016-09-26T04:13:33.603Z,99.99
2016-09-26T04:14:33.625Z,99.99
2016-09-26T04:15:33.950Z,99.99
2016-09-26T04:16:33.988Z,99.99
2016-09-26T04:17:33.694Z,99.99
2016-09-26T04:18:34.025Z,99.99
2016-09-26T04:19:33.722Z,99.99
2016-09-26T04:20:33.752Z,99.99
2016-09-26T04:21:33.775Z,99.99
2016-09-26T04:22:33.787Z,99.99
2016-09-26T04:23:34.111Z,99.99
2016-09-26T04:24:34.206Z,99.99
2016-09-26T04:25:34.180Z,99.99
2016-09-26T04:26:33.872Z,99.99
2016-09-26T04:27:34.208Z,99.99
2016-09-26T04:28:34.239Z,99.99
2016-09-26T04:29:33.941Z,99.99
2016-09-26T04:30:33.976Z,99.99
2016-09-26T04:31:33.983Z,99.99
2016-09-26T04:32:34.385Z,99.99
2016-09-26T04:33:34.346Z,99.99
2016-09-26T04:34:34.353Z,99.99
2016-09-26T04:35:34.075Z,99.99
2016-09-26T04:36:34.389Z,99.99
2016-09-26T04:37:34.117Z,99.99
2016-09-26T04:38:34.130Z,99.99
2016-09-26T04:39:34.465Z,99.99
2016-09-26T04:40:34.178Z,99.99
2016-09-26T04:41:34.191Z,99.99
2016-09-26T04:42:34.576Z,99.99
2016-09-26T04:43:34.550Z,99.99
2016-09-26T04:44:34.568Z,99.99
2016-09-26T04:45:34.715Z,99.99
2016-09-26T04:46:34.302Z,99.99
2016-09-26T04:47:34.466Z,99.99
2016-09-26T04:48:34.346Z,99.99
2016-09-26T04:49:34.694Z,99.99
2016-09-26T04:50:34.380Z,99.99
2016-09-26T04:51:34.723Z,99.99
2016-09-26T04:52:34.432Z,99.99
2016-09-26T04:53:34.761Z,99.99
2016-09-26T04:54:34.478Z,99.99
2016-09-26T04:55:34.806Z,99.99
2016-09-26T04:56:34.563Z,99.99
2016-09-26T04:57:34.533Z,99.99
2016-09-26T04:58:34.552Z,99.99
2016-09-26T04:59:34.931Z,99.99
2016-09-26T05:00:34.914Z,99.99
2016-09-26T05:01:34.609Z,99.99
2016-09-26T05:02:34.991Z,99.99
2016-09-26T05:03:35.013Z,99.99
2016-09-26T05:04:34.992Z,99.99
2016-09-26T05:05:34.714Z,99.99
2016-09-26T05:06:35.031Z,99.99
2016-09-26T05:07:35.105Z,99.99
2016-09-26T05:08:35.064Z,99.99
2016-09-26T05:09:35.168Z,99.99
2016-09-26T05:10:35.143Z,99.99
2016-09-26T05:11:35.242Z,99.99
2016-09-26T05:12:35.157Z,99.99
2016-09-26T05:13:35.177Z,99.99
2016-09-26T05:14:35.195Z,99.99
2016-09-26T05:15:35.212Z,99.99
2016-09-26T05:16:34.931Z,99.99
2016-09-26T05:17:35.262Z,99.99
2016-09-26T05:18:34.985Z,99.99
2016-09-26T05:19:35.300Z,99.99
2016-09-26T05:20:35.324Z,99.99
2016-09-26T05:21:35.334Z,99.99
2016-09-26T05:22:35.053Z,99.99
2016-09-26T05:23:35.391Z,99.99
2016-09-26T05:24:35.091Z,99.99
2016-09-26T05:25:35.121Z,99.99
2016-09-26T05:26:35.144Z,99.99
2016-09-26T05:27:35.157Z,99.99
2016-09-26T05:28:35.174Z,99.99
2016-09-26T05:29:35.512Z,99.99
2016-09-26T05:30:35.531Z,99.99
2016-09-26T05:31:35.244Z,99.99
2016-09-26T05:32:35.576Z,99.99
2016-09-26T05:33:35.591Z,99.99
2016-09-26T05:34:35.616Z,99.99
2016-09-26T05:35:35.620Z,99.99
2016-09-26T05:36:35.645Z,99.99
2016-09-26T05:37:35.409Z,99.99
2016-09-26T05:38:35.710Z,99.99
2016-09-26T05:39:35.718Z,99.99
2016-09-26T05:40:35.423Z,99.99
2016-09-26T05:41:35.750Z,99.99
2016-09-26T05:42:35.781Z,99.99
2016-09-26T05:43:35.788Z,99.99
2016-09-26T05:44:35.805Z,99.99
2016-09-26T05:45:35.534Z,99.99
2016-09-26T05:46:35.557Z,99.99
2016-09-26T05:47:35.591Z,99.99
2016-09-26T05:48:35.596Z,99.99
2016-09-26T05:49:35.931Z,99.99
2016-09-26T05:50:35.650Z,99.99
2016-09-26T05:51:35.664Z,99.99
2016-09-26T05:52:35.672Z,99.99
2016-09-26T05:53:36.009Z,99.99
2016-09-26T05:54:35.726Z,99.99
2016-09-26T05:55:35.754Z,99.99
2016-09-26T05:56:36.073Z,99.99
2016-09-26T05:57:36.152Z,99.99
2016-09-26T05:58:36.119Z,99.99
2016-09-26T05:59:35.835Z,99.99
2016-09-26T06:00:36.164Z,99.99
2016-09-26T06:01:36.178Z,99.99
2016-09-26T06:02:35.940Z,99.99
2016-09-26T06:03:36.222Z,99.99
2016-09-26T06:04:35.928Z,99.99
2016-09-26T06:05:36.269Z,99.99
2016-09-26T06:06:35.981Z,99.99
2016-09-26T06:07:36.004Z,99.99
2016-09-26T06:08:36.330Z,99.99
2016-09-26T06:09:36.031Z,99.99
2016-09-26T06:10:36.091Z,99.99
2016-09-26T06:11:36.088Z,99.99
2016-09-26T06:12:36.420Z,99.99
2016-09-26T06:13:36.540Z,99.99
2016-09-26T06:14:36.462Z,99.99
2016-09-26T06:15:36.171Z,99.99
2016-09-26T06:16:36.187Z,99.99
2016-09-26T06:17:36.521Z,99.99
2016-09-26T06:18:36.232Z,99.99
2016-09-26T06:19:36.571Z,99.99
2016-09-26T06:20:36.595Z,99.99
2016-09-26T06:21:36.622Z,99.99
2016-09-26T06:22:36.317Z,99.99
2016-09-26T06:23:36.662Z,99.99
2016-09-26T06:24:36.734Z,99.99
2016-09-26T06:25:36.443Z,99.99
2016-09-26T06:26:36.848Z,99.99
2016-09-26T06:27:36.482Z,99.99
2016-09-26T06:28:36.762Z,99.99
2016-09-26T06:29:36.782Z,99.99
2016-09-26T06:30:36.499Z,99.99
2016-09-26T06:31:36.817Z,99.99
2016-09-26T06:32:36.833Z,99.99
2016-09-26T06:33:36.863Z,99.99
2016-09-26T06:34:36.920Z,99.99
2016-09-26T06:35:36.602Z,99.99
2016-09-26T06:36:36.682Z,99.99
2016-09-26T06:37:37.021Z,99.99
2016-09-26T06:38:36.680Z,99.99
2016-09-26T06:39:36.993Z,99.99
2016-09-26T06:40:37.005Z,99.99
2016-09-26T06:41:36.738Z,99.99
2016-09-26T06:42:36.800Z,99.99
2016-09-26T06:43:36.778Z,99.99
2016-09-26T06:44:36.786Z,99.99
2016-09-26T06:45:37.119Z,99.99
2016-09-26T06:46:36.841Z,99.99
2016-09-26T06:47:36.917Z,99.99
2016-09-26T06:48:36.890Z,99.99
2016-09-26T06:49:36.951Z,99.99
2016-09-26T06:50:36.916Z,99.99
2016-09-26T06:51:37.260Z,99.99
2016-09-26T06:52:36.962Z,99.99
2016-09-26T06:53:37.310Z,99.99
2016-09-26T06:54:37.330Z,99.99
2016-09-26T06:55:37.335Z,99.99
2016-09-26T06:56:37.354Z,99.99
2016-09-26T06:57:37.377Z,99.99
2016-09-26T06:58:37.110Z,99.99
2016-09-26T06:59:37.432Z,99.99
2016-09-26T07:00:37.530Z,99.99
2016-09-26T07:01:37.477Z,99.99
2016-09-26T07:02:37.549Z,99.99
2016-09-26T07:03:37.210Z,99.99
2016-09-26T07:04:37.228Z,99.99
2016-09-26T07:05:37.266Z,99.99
2016-09-26T07:06:37.583Z,99.99
2016-09-26T07:07:37.348Z,99.99
2016-09-26T07:08:37.320Z,99.99
2016-09-26T07:09:37.334Z,99.99
2016-09-26T07:10:37.664Z,99.99
2016-09-26T07:11:37.373Z,99.99
2016-09-26T07:12:37.407Z,99.99
2016-09-26T07:13:37.726Z,99.99
2016-09-26T07:14:37.450Z,99.99
2016-09-26T07:15:37.778Z,99.99
2016-09-26T07:16:37.489Z,99.99
2016-09-26T07:17:37.869Z,99.99
2016-09-26T07:18:37.855Z,99.99
2016-09-26T07:19:37.755Z,99.99
2016-09-26T07:20:37.890Z,99.99
2016-09-26T07:21:37.912Z,99.99
2016-09-26T07:22:37.934Z,99.99
2016-09-26T07:23:37.963Z,99.99
2016-09-26T07:24:37.970Z,99.99
2016-09-26T07:25:37.696Z,99.99
2016-09-26T07:26:37.712Z,99.99
2016-09-26T07:27:38.088Z,99.34
2016-09-26T07:28:37.756Z,99.15
2016-09-26T07:29:38.089Z,99.39
2016-09-26T07:30:38.114Z,98.72
2016-09-26T07:31:38.131Z,98.52
2016-09-26T07:32:37.907Z,98.14
2016-09-26T07:33:37.857Z,98.43
2016-09-26T07:34:37.882Z,98.62
2016-09-26T07:35:37.903Z,98.19
2016-09-26T07:36:37.926Z,98.48
2016-09-26T07:37:38.001Z,98
2016-09-26T07:38:37.979Z,97.14
2016-09-26T07:39:38.308Z,97.42
2016-09-26T07:40:38.409Z,97.52
2016-09-26T07:41:38.043Z,96.94
2016-09-26T07:42:38.169Z,97.42
2016-09-26T07:43:38.399Z,96.85
2016-09-26T07:44:38.112Z,97.23
2016-09-26T07:45:38.125Z,97.23
2016-09-26T07:46:38.160Z,96.85
2016-09-26T07:47:38.168Z,97.04
2016-09-26T07:48:38.512Z,96.37
2016-09-26T07:49:38.221Z,97.14
2016-09-26T07:50:38.243Z,97.04
2016-09-26T07:51:38.586Z,96.85
2016-09-26T07:52:38.640Z,97.33
2016-09-26T07:53:38.626Z,97.23
2016-09-26T07:54:38.336Z,96.85
2016-09-26T07:55:38.672Z,97.04
2016-09-26T07:56:38.376Z,96.94
2016-09-26T07:57:38.844Z,96.75
2016-09-26T07:58:38.429Z,97.23
2016-09-26T07:59:38.561Z,98
2016-09-26T08:00:38.483Z,97.81
2016-09-26T08:01:38.546Z,97.9
2016-09-26T08:02:38.569Z,97.61
2016-09-26T08:03:38.535Z,97.9
2016-09-26T08:04:38.882Z,97.23
2016-09-26T08:05:38.900Z,97.04
2016-09-26T08:06:38.919Z,97.52
2016-09-26T08:07:38.627Z,96.85
2016-09-26T08:08:38.970Z,96.66
2016-09-26T08:09:38.680Z,96.66
2016-09-26T08:10:39.010Z,96.56
2016-09-26T08:11:39.082Z,96.37
2016-09-26T08:12:38.800Z,96.75
2016-09-26T08:13:38.770Z,97.09
2016-09-26T08:14:38.799Z,96.99
2016-09-26T08:15:38.807Z,95.94
2016-09-26T08:16:39.159Z,95.65
2016-09-26T08:17:38.872Z,95.84
2016-09-26T08:18:38.889Z,94.98
2016-09-26T08:19:39.220Z,95.07
2016-09-26T08:20:38.929Z,95.26
2016-09-26T08:21:38.959Z,96.32
2016-09-26T08:22:39.292Z,96.51
2016-09-26T08:23:39.380Z,96.51
2016-09-26T08:24:39.340Z,96.32
2016-09-26T08:25:39.411Z,96.8
2016-09-26T08:26:39.377Z,96.99
2016-09-26T08:27:39.462Z,96.32
2016-09-26T08:28:39.122Z,96.89
2016-09-26T08:29:39.447Z,96.8
2016-09-26T08:30:39.165Z,96.42
2016-09-26T08:31:39.181Z,95.7
2016-09-26T08:32:39.571Z,95.5
2016-09-26T08:33:39.248Z,94.78
2016-09-26T08:34:39.596Z,94.69
2016-09-26T08:35:39.578Z,94.11
2016-09-26T08:36:39.318Z,93.49
2016-09-26T08:37:39.640Z,92.05
2016-09-26T08:38:39.660Z,90.17
2016-09-26T08:39:39.680Z,91.03
2016-09-26T08:40:39.710Z,90.65
2016-09-26T08:41:39.940Z,90.84
2016-09-26T08:42:39.747Z,90.07
2016-09-26T08:43:39.780Z,89.69
2016-09-26T08:44:39.797Z,87.86
2016-09-26T08:45:39.830Z,88.63
2016-09-26T08:46:39.535Z,89.59
2016-09-26T08:47:39.882Z,87.76
2016-09-26T08:48:39.591Z,88.63
2016-09-26T08:49:39.916Z,89.11
2016-09-26T08:50:39.637Z,89.88
2016-09-26T08:51:39.972Z,89.45
2016-09-26T08:52:39.684Z,89.11
2016-09-26T08:53:40.017Z,89.64
2016-09-26T08:54:40.041Z,89.69
2016-09-26T08:55:40.075Z,90.36
2016-09-26T08:56:39.790Z,89.88
2016-09-26T08:57:39.863Z,89.11
2016-09-26T08:58:40.141Z,89.98
2016-09-26T08:59:39.873Z,89.83
2016-09-26T09:00:40.192Z,90.89
2016-09-26T09:01:40.222Z,90.84
2016-09-26T09:02:40.238Z,89.98
2016-09-26T09:03:40.257Z,89.3
2016-09-26T09:04:39.980Z,89.69
2016-09-26T09:05:39.996Z,89.69
2016-09-26T09:06:40.036Z,89.74
2016-09-26T09:07:40.404Z,89.69
2016-09-26T09:08:40.491Z,90.65
2016-09-26T09:09:40.412Z,91.52
2016-09-26T09:10:40.435Z,91.42
2016-09-26T09:11:40.461Z,91.22
2016-09-26T09:12:40.558Z,89.3
2016-09-26T09:13:40.518Z,89.3
2016-09-26T09:14:40.232Z,89.88
2016-09-26T09:15:40.247Z,89.98
2016-09-26T09:16:40.271Z,90.17
2016-09-26T09:17:40.601Z,88.92
2016-09-26T09:18:40.848Z,88.15
2016-09-26T09:19:40.353Z,88.44
2016-09-26T09:20:40.363Z,89.21
2016-09-26T09:21:40.996Z,88.24
2016-09-26T09:22:40.920Z,88
2016-09-26T09:23:41.002Z,87.71
2016-09-26T09:24:40.461Z,87.9
2016-09-26T09:25:40.946Z,87.71
2016-09-26T09:26:40.939Z,88
2016-09-26T09:27:40.629Z,88.57
2016-09-26T09:28:40.932Z,89.25
2016-09-26T09:29:40.948Z,88.87
2016-09-26T09:30:41.117Z,87.71
2016-09-26T09:31:40.991Z,87.71
2016-09-26T09:32:40.650Z,87.04
2016-09-26T09:33:40.943Z,86.85
2016-09-26T09:34:40.706Z,86.46
2016-09-26T09:35:41.038Z,87.42
2016-09-26T09:36:41.161Z,87.33
2016-09-26T09:37:41.137Z,87.42
2016-09-26T09:38:41.172Z,87.08
2016-09-26T09:39:40.983Z,85.74
2016-09-26T09:40:41.277Z,84.33
2016-09-26T09:41:41.198Z,83.85
2016-09-26T09:42:41.110Z,82.89
2016-09-26T09:43:40.982Z,81.83
2016-09-26T09:44:41.264Z,82.12
2016-09-26T09:45:41.288Z,82.79
2016-09-26T09:46:41.321Z,82.21
2016-09-26T09:47:41.391Z,81.73
2016-09-26T09:48:41.309Z,81.35
2016-09-26T09:49:41.135Z,80.38
2016-09-26T09:50:41.108Z,80.62
2016-09-26T09:51:41.446Z,80.37
2016-09-26T09:52:41.158Z,79.06
2016-09-26T09:53:41.541Z,76.5
2016-09-26T09:54:41.527Z,76.5
2016-09-26T09:55:41.542Z,76.2
2016-09-26T09:56:41.261Z,75.05
2016-09-26T09:57:41.270Z,74.31
2016-09-26T09:58:41.308Z,73.35
2016-09-26T09:59:41.655Z,73.63
2016-09-26T10:00:41.364Z,73.93
2016-09-26T10:01:41.697Z,73.73
2016-09-26T10:02:41.769Z,74.12
2016-09-26T10:03:41.439Z,74.27
2016-09-26T10:04:41.485Z,74.57
2016-09-26T10:05:41.799Z,75.82
2016-09-26T10:06:41.821Z,74.85
2016-09-26T10:07:41.553Z,75.72
2016-09-26T10:08:41.572Z,76.65
2016-09-26T10:09:41.601Z,77.76
2016-09-26T10:10:41.630Z,78.83
2016-09-26T10:11:41.951Z,78.06
2016-09-26T10:12:42.034Z,78.15
2016-09-26T10:13:42.011Z,79.02
2016-09-26T10:14:42.041Z,79.46
2016-09-26T10:15:42.074Z,78.59
2016-09-26T10:16:41.781Z,78.5
2016-09-26T10:17:41.813Z,78.79
2016-09-26T10:18:42.158Z,78.69
2016-09-26T10:19:42.171Z,77.48
2016-09-26T10:20:42.196Z,77.92
2016-09-26T10:21:41.922Z,78.79
2016-09-26T10:22:41.948Z,79.08
2016-09-26T10:23:41.972Z,79.36
2016-09-26T10:24:42.298Z,79.75
2016-09-26T10:25:42.332Z,78.59
2016-09-26T10:26:42.050Z,77.06
2016-09-26T10:27:42.123Z,75.74
2016-09-26T10:28:42.410Z,76.13
2016-09-26T10:29:42.125Z,76.28
2016-09-26T10:30:42.151Z,76.03
2016-09-26T10:31:42.182Z,75.01
2016-09-26T10:32:42.511Z,74.95
2016-09-26T10:33:42.525Z,73.79
2016-09-26T10:34:42.577Z,73.44
2016-09-26T10:35:42.597Z,73.06
2016-09-26T10:36:42.718Z,72.32
2016-09-26T10:37:42.704Z,72.71
2016-09-26T10:38:42.781Z,72.42
2016-09-26T10:39:42.390Z,71.64
2016-09-26T10:40:42.713Z,71.45
2016-09-26T10:41:42.750Z,71.55
2016-09-26T10:42:42.463Z,71.26
2016-09-26T10:43:42.494Z,71.06
2016-09-26T10:44:42.582Z,70.2
2016-09-26T10:45:42.551Z,69.71
2016-09-26T10:46:42.632Z,70.36
2016-09-26T10:47:42.600Z,70.74
2016-09-26T10:48:42.649Z,71.03
2016-09-26T10:49:42.957Z,71.7
2016-09-26T10:50:42.681Z,71.48
2016-09-26T10:51:42.710Z,71.96
2016-09-26T10:52:43.090Z,72.73
2016-09-26T10:53:42.826Z,72.44
2016-09-26T10:54:42.802Z,71.73
2016-09-26T10:55:42.813Z,72.79
2016-09-26T10:56:43.173Z,72.79
2016-09-26T10:57:43.333Z,73.47
2016-09-26T10:58:42.900Z,73.95
2016-09-26T10:59:43.280Z,72.99
2016-09-26T11:00:42.946Z,72.41
2016-09-26T11:01:43.279Z,70.48
2016-09-26T11:02:43.358Z,68.55
2016-09-26T11:03:43.044Z,68.99
2016-09-26T11:04:43.108Z,69.67
2016-09-26T11:05:43.396Z,71.02
2016-09-26T11:06:43.490Z,71.41
2016-09-26T11:07:43.191Z,71.89
2016-09-26T11:08:43.480Z,72.08
2016-09-26T11:09:43.185Z,71.5
2016-09-26T11:10:43.259Z,71.7
2016-09-26T11:11:43.549Z,71.7
2016-09-26T11:12:43.319Z,73.24
2016-09-26T11:13:43.609Z,72.18
2016-09-26T11:14:43.641Z,72.27
2016-09-26T11:15:43.650Z,71.12
2016-09-26T11:16:43.676Z,70.64
2016-09-26T11:17:43.502Z,70.38
2016-09-26T11:18:43.742Z,68.65
2016-09-26T11:19:43.781Z,68.07
2016-09-26T11:20:43.482Z,67.4
2016-09-26T11:21:43.487Z,64.5
2016-09-26T11:22:44.079Z,65.75
2016-09-26T11:23:44.059Z,67
2016-09-26T11:24:44.102Z,66.82
2016-09-26T11:25:44.125Z,65.85
2016-09-26T11:26:44.090Z,66.52
2016-09-26T11:27:43.757Z,66.72
2016-09-26T11:28:43.743Z,65.56
2016-09-26T11:29:43.707Z,65.53
2016-09-26T11:30:44.097Z,66.2
2016-09-26T11:31:44.068Z,66.2
2016-09-26T11:32:44.101Z,67.07
2016-09-26T11:33:44.133Z,66.97
2016-09-26T11:34:43.845Z,66.69
2016-09-26T11:35:44.198Z,68.04
2016-09-26T11:36:44.208Z,67.84
2016-09-26T11:37:44.288Z,66.49
2016-09-26T11:38:43.937Z,65.95
2016-09-26T11:39:43.973Z,66.24
2016-09-26T11:40:44.311Z,65.78
2016-09-26T11:41:44.336Z,65.11
2016-09-26T11:42:44.408Z,64.37
2016-09-26T11:43:44.388Z,65.24
2016-09-26T11:44:44.408Z,64.86
2016-09-26T11:45:44.448Z,63.31
2016-09-26T11:46:44.147Z,63.7
2016-09-26T11:47:44.486Z,63.98
2016-09-26T11:48:44.233Z,64.56
2016-09-26T11:49:44.545Z,65.01
2016-09-26T11:50:44.577Z,65.91
2016-09-26T11:51:44.597Z,65.53
2016-09-26T11:52:44.318Z,65.82
2016-09-26T11:53:44.337Z,65.14
2016-09-26T11:54:44.867Z,65.24
2016-09-26T11:55:44.391Z,64.56
2016-09-26T11:56:44.522Z,64.76
2016-09-26T11:57:44.765Z,64.4
2016-09-26T11:58:44.776Z,63.63
2016-09-26T11:59:44.825Z,63.79
2016-09-26T12:00:44.527Z,64.66
2016-09-26T12:01:44.876Z,65.63
2016-09-26T12:02:44.932Z,65.14
2016-09-26T12:03:44.917Z,65.24
2016-09-26T12:04:45.037Z,65.53
2016-09-26T12:05:44.967Z,64.47
2016-09-26T12:06:44.685Z,63.98
2016-09-26T12:07:44.711Z,63.79
2016-09-26T12:08:45.059Z,64.76
2016-09-26T12:09:45.078Z,66.17
2016-09-26T12:10:45.109Z,65.01
2016-09-26T12:11:45.146Z,64.34
2016-09-26T12:12:44.887Z,63.95
2016-09-26T12:13:44.879Z,63.67
2016-09-26T12:14:44.912Z,63.79
2016-09-26T12:15:45.282Z,62.82
2016-09-26T12:16:44.946Z,63.4
2016-09-26T12:17:44.982Z,63.4
2016-09-26T12:18:45.317Z,61.09
2016-09-26T12:19:45.334Z,61.22
2016-09-26T12:20:45.051Z,61.31
2016-09-26T12:21:45.084Z,60.93
2016-09-26T12:22:45.418Z,61.89
2016-09-26T12:23:45.507Z,59.86
2016-09-26T12:24:45.177Z,59.77
2016-09-26T12:25:45.199Z,61.22
2016-09-26T12:26:45.233Z,61.6
2016-09-26T12:27:45.556Z,61.22
2016-09-26T12:28:45.276Z,61.31
2016-09-26T12:29:45.310Z,61.89
2016-09-26T12:30:45.637Z,62.37
2016-09-26T12:31:45.357Z,62.15
2016-09-26T12:32:45.688Z,61.38
2016-09-26T12:33:45.398Z,62.34
2016-09-26T12:34:45.538Z,61.86
2016-09-26T12:35:45.761Z,61.47
2016-09-26T12:36:45.497Z,62.44
2016-09-26T12:37:45.566Z,62.54
2016-09-26T12:38:45.846Z,61.28
2016-09-26T12:39:45.569Z,61.6
2016-09-26T12:40:45.912Z,58.8
2016-09-26T12:41:45.926Z,59.19
2016-09-26T12:42:45.640Z,59.38
2016-09-26T12:44:45.699Z,60.16
2016-09-26T12:45:45.722Z,60.28
2016-09-26T12:46:46.065Z,59.8
2016-09-26T12:47:46.107Z,58.45
2016-09-26T12:48:45.802Z,58.45
2016-09-26T12:49:45.834Z,58.83
2016-09-26T12:50:46.171Z,58.83
2016-09-26T12:51:46.195Z,58.25
2016-09-26T12:52:45.925Z,58.54
2016-09-26T12:53:45.939Z,58.83
2016-09-26T12:54:46.277Z,58.73
2016-09-26T12:55:46.309Z,57.77